sensor_id;sensor_type;location;lat;lon;timestamp;pressure;altitude;pressure_sealevel;temperature;humidity
51081;BME280;37130;55.670;37.596;2023-01-27T00:01:02;99809.59;;;-2.51;88.07
51081;BME280;37130;55.670;37.596;2023-01-27T00:03:30;99807.81;;;-2.55;87.48
51081;BME280;37130;55.670;37.596;2023-01-27T00:05:57;99804.44;;;-2.48;88.33
51081;BME280;37130;55.670;37.596;2023-01-27T00:08:27;99702.78;;;-3.14;87.56
51081;BME280;37130;55.670;37.596;2023-01-27T00:10:59;99800.91;;;-2.55;88.28
51081;BME280;37130;55.670;37.596;2023-01-27T00:13:45;99813.88;;;-2.56;88.03
51081;BME280;37130;55.670;37.596;2023-01-27T00:16:12;99819.91;;;-2.57;88.17
51081;BME280;37130;55.670;37.596;2023-01-27T00:18:40;99644.38;;;-3.73;87.74
51081;BME280;37130;55.670;37.596;2023-01-27T00:21:08;99810.28;;;-2.68;87.92
51081;BME280;37130;55.670;37.596;2023-01-27T00:23:53;99792.06;;;-2.80;87.67
51081;BME280;37130;55.670;37.596;2023-01-27T00:26:40;99820.66;;;-2.68;88.27
51081;BME280;37130;55.670;37.596;2023-01-27T00:29:07;99823.34;;;-2.60;88.13
51081;BME280;37130;55.670;37.596;2023-01-27T00:31:35;99819.00;;;-2.59;87.97
51081;BME280;37130;55.670;37.596;2023-01-27T00:34:21;99812.97;;;-2.60;87.73
51081;BME280;37130;55.670;37.596;2023-01-27T00:36:48;99732.19;;;-3.11;87.98
51081;BME280;37130;55.670;37.596;2023-01-27T00:39:16;99801.59;;;-2.73;87.69
51081;BME280;37130;55.670;37.596;2023-01-27T00:41:44;99819.00;;;-2.61;88.22
51081;BME280;37130;55.670;37.596;2023-01-27T00:44:11;99808.63;;;-2.62;88.08
51081;BME280;37130;55.670;37.596;2023-01-27T00:46:43;99813.78;;;-2.67;87.30
51081;BME280;37130;55.670;37.596;2023-01-27T00:49:11;99807.63;;;-2.75;88.36
51081;BME280;37130;55.670;37.596;2023-01-27T00:51:39;99811.91;;;-2.80;87.37
51081;BME280;37130;55.670;37.596;2023-01-27T00:54:07;99801.53;;;-2.80;87.53
51081;BME280;37130;55.670;37.596;2023-01-27T00:56:35;99808.50;;;-2.76;87.81
51081;BME280;37130;55.670;37.596;2023-01-27T00:59:03;99792.97;;;-2.75;88.01
51081;BME280;37130;55.670;37.596;2023-01-27T01:01:32;99758.16;;;-3.01;87.80
51081;BME280;37130;55.670;37.596;2023-01-27T01:04:04;99629.53;;;-3.92;87.79
51081;BME280;37130;55.670;37.596;2023-01-27T01:06:31;99752.91;;;-3.11;88.64
51081;BME280;37130;55.670;37.596;2023-01-27T01:08:59;99784.13;;;-2.94;89.10
51081;BME280;37130;55.670;37.596;2023-01-27T01:11:27;99765.81;;;-3.12;88.80
51081;BME280;37130;55.670;37.596;2023-01-27T01:13:55;99789.31;;;-2.94;89.39
51081;BME280;37130;55.670;37.596;2023-01-27T01:16:23;99788.47;;;-2.91;89.18
51081;BME280;37130;55.670;37.596;2023-01-27T01:18:52;99784.13;;;-2.98;88.43
51081;BME280;37130;55.670;37.596;2023-01-27T01:21:20;99777.19;;;-3.01;88.85
51081;BME280;37130;55.670;37.596;2023-01-27T01:23:47;99579.22;;;-4.18;88.81
51081;BME280;37130;55.670;37.596;2023-01-27T01:26:16;99784.13;;;-2.94;89.24
51081;BME280;37130;55.670;37.596;2023-01-27T01:28:45;99685.00;;;-3.64;88.71
51081;BME280;37130;55.670;37.596;2023-01-27T01:31:16;99781.53;;;-2.97;88.78
51081;BME280;37130;55.670;37.596;2023-01-27T01:33:45;99788.47;;;-2.96;89.03
51081;BME280;37130;55.670;37.596;2023-01-27T01:36:16;99684.19;;;-3.60;88.77
51081;BME280;37130;55.670;37.596;2023-01-27T01:38:44;99781.53;;;-2.97;89.22
51081;BME280;37130;55.670;37.596;2023-01-27T01:41:16;99766.75;;;-3.05;89.58
51081;BME280;37130;55.670;37.596;2023-01-27T01:43:45;99773.66;;;-3.04;90.18
51081;BME280;37130;55.670;37.596;2023-01-27T01:46:13;99776.22;;;-3.08;90.16
51081;BME280;37130;55.670;37.596;2023-01-27T01:48:53;99780.50;;;-3.13;89.49
51081;BME280;37130;55.670;37.596;2023-01-27T01:51:40;99771.75;;;-3.24;89.42
51081;BME280;37130;55.670;37.596;2023-01-27T01:54:30;99770.75;;;-3.37;90.06
51081;BME280;37130;55.670;37.596;2023-01-27T02:00:02;99776.69;;;-3.44;89.47
51081;BME280;37130;55.670;37.596;2023-01-27T02:02:39;99669.13;;;-3.98;90.56
51081;BME280;37130;55.670;37.596;2023-01-27T02:05:12;99775.91;;;-3.40;90.50
51081;BME280;37130;55.670;37.596;2023-01-27T02:08:14;99769.81;;;-3.42;90.37
51081;BME280;37130;55.670;37.596;2023-01-27T02:10:43;99646.59;;;-4.08;90.58
51081;BME280;37130;55.670;37.596;2023-01-27T02:13:11;99769.97;;;-3.29;89.70
51081;BME280;37130;55.670;37.596;2023-01-27T02:15:39;99744.81;;;-3.43;89.72
51081;BME280;37130;55.670;37.596;2023-01-27T02:18:06;99737.03;;;-3.41;89.84
51081;BME280;37130;55.670;37.596;2023-01-27T02:29:11;99762.22;;;-3.25;89.91
51081;BME280;37130;55.670;37.596;2023-01-27T02:31:40;99754.53;;;-3.20;90.29
51081;BME280;37130;55.670;37.596;2023-01-27T02:34:13;99775.25;;;-3.19;89.52
51081;BME280;37130;55.670;37.596;2023-01-27T02:36:45;99758.88;;;-3.19;89.19
51081;BME280;37130;55.670;37.596;2023-01-27T02:39:16;99745.81;;;-3.28;89.02
51081;BME280;37130;55.670;37.596;2023-01-27T02:41:51;99748.44;;;-3.24;88.93
51081;BME280;37130;55.670;37.596;2023-01-27T02:44:19;99763.13;;;-3.24;89.11
51081;BME280;37130;55.670;37.596;2023-01-27T02:46:47;99747.53;;;-3.29;89.36
51081;BME280;37130;55.670;37.596;2023-01-27T02:49:14;99625.13;;;-4.00;88.91
51081;BME280;37130;55.670;37.596;2023-01-27T02:51:42;99702.38;;;-3.54;89.17
51081;BME280;37130;55.670;37.596;2023-01-27T02:54:10;99745.81;;;-3.25;88.95
51081;BME280;37130;55.670;37.596;2023-01-27T02:56:38;99690.28;;;-3.58;88.97
51081;BME280;37130;55.670;37.596;2023-01-27T02:59:06;99747.63;;;-3.21;89.36
51081;BME280;37130;55.670;37.596;2023-01-27T03:01:37;99718.94;;;-3.38;89.02
51081;BME280;37130;55.670;37.596;2023-01-27T03:04:05;99751.94;;;-3.22;88.08
51081;BME280;37130;55.670;37.596;2023-01-27T03:06:35;99748.47;;;-3.21;88.11
51081;BME280;37130;55.670;37.596;2023-01-27T03:09:06;99651.19;;;-3.81;88.82
51081;BME280;37130;55.670;37.596;2023-01-27T03:11:33;99748.41;;;-3.25;88.98
51081;BME280;37130;55.670;37.596;2023-01-27T03:14:19;99750.16;;;-3.26;88.33
51081;BME280;37130;55.670;37.596;2023-01-27T03:16:47;99720.59;;;-3.43;88.37
51081;BME280;37130;55.670;37.596;2023-01-27T03:19:33;99661.44;;;-3.90;88.46
51081;BME280;37130;55.670;37.596;2023-01-27T03:22:02;99755.34;;;-3.23;88.66
51081;BME280;37130;55.670;37.596;2023-01-27T03:24:32;99760.63;;;-3.17;88.05
51081;BME280;37130;55.670;37.596;2023-01-27T03:27:04;99763.19;;;-3.15;87.51
51081;BME280;37130;55.670;37.596;2023-01-27T03:29:52;99754.53;;;-3.17;87.64
51081;BME280;37130;55.670;37.596;2023-01-27T03:32:28;99756.28;;;-3.18;87.74
51081;BME280;37130;55.670;37.596;2023-01-27T03:35:16;99749.34;;;-3.20;88.01
51081;BME280;37130;55.670;37.596;2023-01-27T03:37:46;99753.72;;;-3.13;88.22
51081;BME280;37130;55.670;37.596;2023-01-27T03:40:33;99753.69;;;-3.18;87.43
51081;BME280;37130;55.670;37.596;2023-01-27T03:43:19;99753.34;;;-3.48;88.72
51081;BME280;37130;55.670;37.596;2023-01-27T03:46:05;99757.84;;;-3.34;88.22
51081;BME280;37130;55.670;37.596;2023-01-27T03:48:49;99756.09;;;-3.35;87.85
51081;BME280;37130;55.670;37.596;2023-01-27T03:51:19;99747.38;;;-3.43;87.90
51081;BME280;37130;55.670;37.596;2023-01-27T03:53:47;99756.06;;;-3.39;88.01
51081;BME280;37130;55.670;37.596;2023-01-27T03:56:15;99755.19;;;-3.40;87.62
51081;BME280;37130;55.670;37.596;2023-01-27T03:58:46;99750.84;;;-3.41;88.36
51081;BME280;37130;55.670;37.596;2023-01-27T04:01:16;99727.38;;;-3.58;88.00
51081;BME280;37130;55.670;37.596;2023-01-27T04:03:45;99769.94;;;-3.33;87.76
51081;BME280;37130;55.670;37.596;2023-01-27T04:06:33;99777.41;;;-3.57;88.50
51081;BME280;37130;55.670;37.596;2023-01-27T04:09:26;99768.03;;;-3.46;88.72
51081;BME280;37130;55.670;37.596;2023-01-27T04:11:57;99693.28;;;-3.98;88.11
51081;BME280;37130;55.670;37.596;2023-01-27T04:14:37;99768.91;;;-3.47;87.74
51081;BME280;37130;55.670;37.596;2023-01-27T04:17:14;99769.78;;;-3.48;88.06
51081;BME280;37130;55.670;37.596;2023-01-27T04:19:44;99777.59;;;-3.42;88.27
51081;BME280;37130;55.670;37.596;2023-01-27T04:22:13;99778.53;;;-3.37;87.96
51081;BME280;37130;55.670;37.596;2023-01-27T04:24:41;99746.44;;;-3.51;88.15
51081;BME280;37130;55.670;37.596;2023-01-27T04:27:13;99781.16;;;-3.32;87.44
51081;BME280;37130;55.670;37.596;2023-01-27T04:29:42;99795.00;;;-3.30;87.36
51081;BME280;37130;55.670;37.596;2023-01-27T04:32:11;99763.72;;;-3.47;87.28
51081;BME280;37130;55.670;37.596;2023-01-27T04:34:40;99732.50;;;-3.59;87.47
51081;BME280;37130;55.670;37.596;2023-01-27T04:37:08;99789.84;;;-3.25;87.47
51081;BME280;37130;55.670;37.596;2023-01-27T04:39:36;99781.16;;;-3.32;87.54
51081;BME280;37130;55.670;37.596;2023-01-27T04:42:04;99711.63;;;-3.76;87.38
51081;BME280;37130;55.670;37.596;2023-01-27T04:44:31;99671.66;;;-4.03;87.40
51081;BME280;37130;55.670;37.596;2023-01-27T04:46:59;99786.31;;;-3.34;87.90
51081;BME280;37130;55.670;37.596;2023-01-27T04:49:26;99788.94;;;-3.31;87.96
51081;BME280;37130;55.670;37.596;2023-01-27T04:51:54;99790.69;;;-3.29;87.83
51081;BME280;37130;55.670;37.596;2023-01-27T04:54:21;99787.25;;;-3.27;87.45
51081;BME280;37130;55.670;37.596;2023-01-27T04:57:00;99676.19;;;-3.85;87.77
51081;BME280;37130;55.670;37.596;2023-01-27T04:59:31;99770.88;;;-3.27;87.72
51081;BME280;37130;55.670;37.596;2023-01-27T05:01:58;99777.84;;;-3.19;87.55
51081;BME280;37130;55.670;37.596;2023-01-27T05:04:26;99786.47;;;-3.20;87.56
51081;BME280;37130;55.670;37.596;2023-01-27T05:06:54;99795.94;;;-3.23;87.43
51081;BME280;37130;55.670;37.596;2023-01-27T05:09:21;99788.16;;;-3.23;87.29
51081;BME280;37130;55.670;37.596;2023-01-27T05:11:49;99787.25;;;-3.28;87.51
51081;BME280;37130;55.670;37.596;2023-01-27T05:14:17;99789.84;;;-3.27;87.44
51081;BME280;37130;55.670;37.596;2023-01-27T05:16:44;99790.75;;;-3.23;87.82
51081;BME280;37130;55.670;37.596;2023-01-27T05:19:12;99792.47;;;-3.22;87.37
51081;BME280;37130;55.670;37.596;2023-01-27T05:21:39;99781.22;;;-3.26;86.96
51081;BME280;37130;55.670;37.596;2023-01-27T05:24:09;99791.63;;;-3.24;87.23
51081;BME280;37130;55.670;37.596;2023-01-27T05:26:37;99803.69;;;-3.23;87.12
51081;BME280;37130;55.670;37.596;2023-01-27T05:29:05;99800.25;;;-3.24;87.75
51081;BME280;37130;55.670;37.596;2023-01-27T05:31:32;99773.31;;;-3.38;87.61
51081;BME280;37130;55.670;37.596;2023-01-27T05:34:00;99612.63;;;-4.36;87.41
51081;BME280;37130;55.670;37.596;2023-01-27T05:36:29;99812.38;;;-3.18;87.50
51081;BME280;37130;55.670;37.596;2023-01-27T05:38:57;99583.16;;;-4.50;86.84
51081;BME280;37130;55.670;37.596;2023-01-27T05:41:28;99814.97;;;-3.18;87.35
51081;BME280;37130;55.670;37.596;2023-01-27T05:43:57;99761.84;;;-3.60;87.22
51081;BME280;37130;55.670;37.596;2023-01-27T05:46:27;99814.16;;;-3.13;87.09
51081;BME280;37130;55.670;37.596;2023-01-27T05:48:58;99807.25;;;-3.17;87.18
51081;BME280;37130;55.670;37.596;2023-01-27T05:51:29;99716.81;;;-3.76;87.39
51081;BME280;37130;55.670;37.596;2023-01-27T05:53:57;99785.38;;;-3.39;87.67
51081;BME280;37130;55.670;37.596;2023-01-27T05:56:25;99827.13;;;-3.14;88.06
51081;BME280;37130;55.670;37.596;2023-01-27T05:58:56;99792.34;;;-3.35;87.64
51081;BME280;37130;55.670;37.596;2023-01-27T06:01:26;99816.69;;;-3.17;87.44
51081;BME280;37130;55.670;37.596;2023-01-27T06:03:54;99824.56;;;-3.11;87.42
51081;BME280;37130;55.670;37.596;2023-01-27T06:06:24;99722.84;;;-3.76;87.34
51081;BME280;37130;55.670;37.596;2023-01-27T06:08:52;99810.56;;;-3.27;87.30
51081;BME280;37130;55.670;37.596;2023-01-27T06:11:20;99646.41;;;-4.22;87.42
51081;BME280;37130;55.670;37.596;2023-01-27T06:13:49;99826.22;;;-3.15;87.55
51081;BME280;37130;55.670;37.596;2023-01-27T06:16:19;99731.47;;;-3.77;87.20
51081;BME280;37130;55.670;37.596;2023-01-27T06:18:48;99834.91;;;-3.13;87.84
51081;BME280;37130;55.670;37.596;2023-01-27T06:21:15;99734.81;;;-3.84;87.72
51081;BME280;37130;55.670;37.596;2023-01-27T06:23:43;99734.03;;;-3.80;87.30
51081;BME280;37130;55.670;37.596;2023-01-27T06:26:15;99837.41;;;-3.17;88.36
51081;BME280;37130;55.670;37.596;2023-01-27T06:28:43;99833.16;;;-3.12;88.39
51081;BME280;37130;55.670;37.596;2023-01-27T06:31:13;99827.16;;;-3.10;88.22
51081;BME280;37130;55.670;37.596;2023-01-27T06:33:42;99832.38;;;-3.05;88.37
51081;BME280;37130;55.670;37.596;2023-01-27T06:36:12;99770.72;;;-3.40;87.74
51081;BME280;37130;55.670;37.596;2023-01-27T06:38:40;99839.38;;;-2.98;87.71
51081;BME280;37130;55.670;37.596;2023-01-27T06:41:09;99822.06;;;-3.02;87.91
51081;BME280;37130;55.670;37.596;2023-01-27T06:43:37;99829.91;;;-2.96;88.04
51081;BME280;37130;55.670;37.596;2023-01-27T06:46:05;99830.88;;;-2.84;88.47
51081;BME280;37130;55.670;37.596;2023-01-27T06:48:33;99830.06;;;-2.79;88.37
51081;BME280;37130;55.670;37.596;2023-01-27T06:51:00;99821.41;;;-2.82;88.17
51081;BME280;37130;55.670;37.596;2023-01-27T06:53:28;99837.84;;;-2.79;87.68
51081;BME280;37130;55.670;37.596;2023-01-27T06:55:57;99833.56;;;-2.75;87.19
51081;BME280;37130;55.670;37.596;2023-01-27T06:58:25;99837.94;;;-2.68;88.05
51081;BME280;37130;55.670;37.596;2023-01-27T07:00:53;99842.31;;;-2.67;87.19
51081;BME280;37130;55.670;37.596;2023-01-27T07:03:22;99829.34;;;-2.67;86.92
51081;BME280;37130;55.670;37.596;2023-01-27T07:05:49;99838.03;;;-2.57;87.27
51081;BME280;37130;55.670;37.596;2023-01-27T07:08:16;99726.94;;;-3.17;86.55
51081;BME280;37130;55.670;37.596;2023-01-27T07:10:44;99831.09;;;-2.60;86.41
51081;BME280;37130;55.670;37.596;2023-01-27T07:13:13;99840.72;;;-2.51;86.57
51081;BME280;37130;55.670;37.596;2023-01-27T07:15:40;99769.44;;;-2.98;86.17
51081;BME280;37130;55.670;37.596;2023-01-27T07:18:10;99839.88;;;-2.49;86.49
51081;BME280;37130;55.670;37.596;2023-01-27T07:20:38;99839.13;;;-2.35;85.43
51081;BME280;37130;55.670;37.596;2023-01-27T07:23:06;99756.59;;;-2.84;85.78
51081;BME280;37130;55.670;37.596;2023-01-27T07:25:34;99829.53;;;-2.44;85.52
51081;BME280;37130;55.670;37.596;2023-01-27T07:28:01;99845.13;;;-2.39;85.46
51081;BME280;37130;55.670;37.596;2023-01-27T07:30:30;99830.25;;;-2.60;85.56
51081;BME280;37130;55.670;37.596;2023-01-27T07:33:05;99751.16;;;-3.12;85.29
51081;BME280;37130;55.670;37.596;2023-01-27T07:35:35;99850.16;;;-2.55;85.23
51081;BME280;37130;55.670;37.596;2023-01-27T07:38:04;99865.03;;;-2.37;85.31
51081;BME280;37130;55.670;37.596;2023-01-27T07:40:32;99849.50;;;-2.31;84.67
51081;BME280;37130;55.670;37.596;2023-01-27T07:43:01;99856.47;;;-2.27;85.01
51081;BME280;37130;55.670;37.596;2023-01-27T07:45:29;99853.91;;;-2.25;84.31
51081;BME280;37130;55.670;37.596;2023-01-27T07:48:04;99864.31;;;-2.22;83.66
51081;BME280;37130;55.670;37.596;2023-01-27T07:50:33;99869.47;;;-2.24;83.72
51081;BME280;37130;55.670;37.596;2023-01-27T07:53:03;99827.78;;;-2.45;83.49
51081;BME280;37130;55.670;37.596;2023-01-27T07:55:32;99875.59;;;-2.17;83.72
51081;BME280;37130;55.670;37.596;2023-01-27T07:57:59;99780.94;;;-2.65;83.78
51081;BME280;37130;55.670;37.596;2023-01-27T08:00:27;99886.03;;;-2.08;83.59
51081;BME280;37130;55.670;37.596;2023-01-27T08:02:56;99793.94;;;-2.60;83.38
51081;BME280;37130;55.670;37.596;2023-01-27T08:05:24;99877.41;;;-2.04;83.31
51081;BME280;37130;55.670;37.596;2023-01-27T08:07:54;99791.41;;;-2.54;83.22
51081;BME280;37130;55.670;37.596;2023-01-27T08:10:25;99874.84;;;-2.01;83.82
51081;BME280;37130;55.670;37.596;2023-01-27T08:12:52;99867.09;;;-1.99;82.84
51081;BME280;37130;55.670;37.596;2023-01-27T08:15:21;99873.13;;;-1.99;83.31
51081;BME280;37130;55.670;37.596;2023-01-27T08:17:53;99818.38;;;-2.35;82.54
51081;BME280;37130;55.670;37.596;2023-01-27T08:20:22;99699.47;;;-3.01;82.80
51081;BME280;37130;55.670;37.596;2023-01-27T08:22:50;99818.38;;;-2.31;82.50
51081;BME280;37130;55.670;37.596;2023-01-27T08:25:17;99883.53;;;-1.95;83.23
51081;BME280;37130;55.670;37.596;2023-01-27T08:27:48;99888.72;;;-1.99;82.10
51081;BME280;37130;55.670;37.596;2023-01-27T08:30:16;99881.81;;;-1.96;82.92
51081;BME280;37130;55.670;37.596;2023-01-27T08:32:44;99887.91;;;-1.90;82.52
51081;BME280;37130;55.670;37.596;2023-01-27T08:35:14;99834.06;;;-2.18;82.90
51081;BME280;37130;55.670;37.596;2023-01-27T08:37:45;99881.06;;;-1.80;82.62
51081;BME280;37130;55.670;37.596;2023-01-27T08:40:14;99884.56;;;-1.70;82.30
51081;BME280;37130;55.670;37.596;2023-01-27T08:42:42;99880.25;;;-1.65;82.31
51081;BME280;37130;55.670;37.596;2023-01-27T08:45:10;99875.97;;;-1.60;82.47
51081;BME280;37130;55.670;37.596;2023-01-27T08:47:38;99876.84;;;-1.58;81.94
51081;BME280;37130;55.670;37.596;2023-01-27T08:50:06;99869.06;;;-1.60;81.38
51081;BME280;37130;55.670;37.596;2023-01-27T08:52:34;99865.63;;;-1.57;81.66
51081;BME280;37130;55.670;37.596;2023-01-27T08:55:02;99809.97;;;-2.04;82.04
51081;BME280;37130;55.670;37.596;2023-01-27T08:57:30;99858.63;;;-1.63;81.17
51081;BME280;37130;55.670;37.596;2023-01-27T08:59:59;99879.50;;;-1.50;81.61
51081;BME280;37130;55.670;37.596;2023-01-27T09:02:30;99879.53;;;-1.49;81.29
51081;BME280;37130;55.670;37.596;2023-01-27T09:04:58;99788.28;;;-2.10;81.43
51081;BME280;37130;55.670;37.596;2023-01-27T09:07:25;99809.16;;;-1.90;81.26
51081;BME280;37130;55.670;37.596;2023-01-27T09:09:53;99876.13;;;-1.39;81.66
51081;BME280;37130;55.670;37.596;2023-01-27T09:12:39;99862.19;;;-1.50;81.23
51081;BME280;37130;55.670;37.596;2023-01-27T09:15:09;99822.25;;;-1.72;80.92
51081;BME280;37130;55.670;37.596;2023-01-27T09:17:37;99783.97;;;-2.05;81.00
51081;BME280;37130;55.670;37.596;2023-01-27T09:20:05;99728.47;;;-2.32;81.22
51081;BME280;37130;55.670;37.596;2023-01-27T09:22:33;99896.88;;;-1.37;80.86
51081;BME280;37130;55.670;37.596;2023-01-27T09:25:02;99733.75;;;-2.19;81.11
51081;BME280;37130;55.670;37.596;2023-01-27T09:27:30;99696.41;;;-2.45;80.60
51081;BME280;37130;55.670;37.596;2023-01-27T09:30:07;99818.78;;;-1.75;81.19
51081;BME280;37130;55.670;37.596;2023-01-27T09:32:36;99803.16;;;-1.79;80.77
51081;BME280;37130;55.670;37.596;2023-01-27T09:35:04;99783.31;;;-1.75;81.09
51081;BME280;37130;55.670;37.596;2023-01-27T09:37:39;99741.66;;;-1.96;81.10
51081;BME280;37130;55.670;37.596;2023-01-27T09:40:59;99876.97;;;-1.35;81.97
51081;BME280;37130;55.670;37.596;2023-01-27T09:51:51;99879.59;;;-1.26;80.74
51081;BME280;37130;55.670;37.596;2023-01-27T09:54:48;99874.44;;;-1.27;81.28
51081;BME280;37130;55.670;37.596;2023-01-27T10:03:38;99866.59;;;-1.32;80.91
51081;BME280;37130;55.670;37.596;2023-01-27T10:18:47;99715.59;;;-2.18;80.70
51081;BME280;37130;55.670;37.596;2023-01-27T10:27:39;99800.69;;;-1.59;80.74
51081;BME280;37130;55.670;37.596;2023-01-27T10:29:44;99857.97;;;-1.23;80.91
51081;BME280;37130;55.670;37.596;2023-01-27T10:38:07;99871.03;;;-1.05;80.66
51081;BME280;37130;55.670;37.596;2023-01-27T10:43:36;99871.94;;;-0.92;81.02
51081;BME280;37130;55.670;37.596;2023-01-27T10:49:38;99878.88;;;-0.90;80.24
51081;BME280;37130;55.670;37.596;2023-01-27T10:51:58;99875.41;;;-1.01;80.69
51081;BME280;37130;55.670;37.596;2023-01-27T10:54:33;99875.38;;;-1.05;80.64
51081;BME280;37130;55.670;37.596;2023-01-27T10:57:10;99879.72;;;-1.03;80.64
51081;BME280;37130;55.670;37.596;2023-01-27T10:59:49;99734.72;;;-1.94;80.73
51081;BME280;37130;55.670;37.596;2023-01-27T11:05:33;99890.97;;;-1.02;80.49
51081;BME280;37130;55.670;37.596;2023-01-27T11:08:14;99890.13;;;-1.01;81.18
51081;BME280;37130;55.670;37.596;2023-01-27T11:10:46;99892.72;;;-1.00;80.72
51081;BME280;37130;55.670;37.596;2023-01-27T11:13:34;99849.31;;;-1.24;80.53
51081;BME280;37130;55.670;37.596;2023-01-27T11:16:03;99911.81;;;-0.99;80.88
51081;BME280;37130;55.670;37.596;2023-01-27T11:18:34;99819.75;;;-1.52;80.69
51081;BME280;37130;55.670;37.596;2023-01-27T11:21:06;99899.63;;;-1.09;80.64
51081;BME280;37130;55.670;37.596;2023-01-27T11:23:42;99889.19;;;-1.16;80.67
51081;BME280;37130;55.670;37.596;2023-01-27T11:34:56;99890.91;;;-1.19;80.69
51081;BME280;37130;55.670;37.596;2023-01-27T11:37:47;99810.13;;;-1.71;80.83
51081;BME280;37130;55.670;37.596;2023-01-27T11:40:35;99888.31;;;-1.19;80.69
51081;BME280;37130;55.670;37.596;2023-01-27T11:43:04;99905.63;;;-1.18;80.61
51081;BME280;37130;55.670;37.596;2023-01-27T11:45:34;99849.22;;;-1.48;80.44
51081;BME280;37130;55.670;37.596;2023-01-27T11:48:06;99889.16;;;-1.25;80.85
51081;BME280;37130;55.670;37.596;2023-01-27T11:50:35;99889.16;;;-1.28;80.51
51081;BME280;37130;55.670;37.596;2023-01-27T11:53:26;99895.16;;;-1.37;80.71
51081;BME280;37130;55.670;37.596;2023-01-27T11:56:03;99889.03;;;-1.45;81.26
51081;BME280;37130;55.670;37.596;2023-01-27T11:58:40;99881.28;;;-1.43;81.27
51081;BME280;37130;55.670;37.596;2023-01-27T12:01:16;99876.03;;;-1.49;81.14
51081;BME280;37130;55.670;37.596;2023-01-27T12:03:58;99903.84;;;-1.36;80.88
51081;BME280;37130;55.670;37.596;2023-01-27T12:06:36;99821.28;;;-1.86;80.97
51081;BME280;37130;55.670;37.596;2023-01-27T12:09:04;99809.16;;;-1.96;81.43
51081;BME280;37130;55.670;37.596;2023-01-27T12:11:32;99821.28;;;-1.86;81.08
51081;BME280;37130;55.670;37.596;2023-01-27T12:14:02;99920.28;;;-1.34;81.09
51081;BME280;37130;55.670;37.596;2023-01-27T12:16:45;99902.03;;;-1.48;81.51
51081;BME280;37130;55.670;37.596;2023-01-27T12:19:34;99889.88;;;-1.57;81.54
51081;BME280;37130;55.670;37.596;2023-01-27T12:22:09;99912.47;;;-1.37;81.95
51081;BME280;37130;55.670;37.596;2023-01-27T12:24:45;99905.53;;;-1.41;81.20
51081;BME280;37130;55.670;37.596;2023-01-27T12:27:25;99908.16;;;-1.35;81.43
51081;BME280;37130;55.670;37.596;2023-01-27T12:29:58;99737.97;;;-2.35;81.52
51081;BME280;37130;55.670;37.596;2023-01-27T12:32:39;99916.84;;;-1.30;81.52
51081;BME280;37130;55.670;37.596;2023-01-27T12:35:22;99912.50;;;-1.33;81.45
51081;BME280;37130;55.670;37.596;2023-01-27T12:37:59;99925.50;;;-1.33;81.62
51081;BME280;37130;55.670;37.596;2023-01-27T12:40:28;99925.50;;;-1.33;81.73
51081;BME280;37130;55.670;37.596;2023-01-27T12:45:31;99932.41;;;-1.36;81.86
51081;BME280;37130;55.670;37.596;2023-01-27T12:48:16;99814.25;;;-2.09;81.65
51081;BME280;37130;55.670;37.596;2023-01-27T12:53:25;99921.97;;;-1.44;81.75
51081;BME280;37130;55.670;37.596;2023-01-27T13:01:23;99935.81;;;-1.46;81.94
51081;BME280;37130;55.670;37.596;2023-01-27T13:03:55;99942.72;;;-1.45;82.39
51081;BME280;37130;55.670;37.596;2023-01-27T13:06:30;99906.28;;;-1.62;82.03
51081;BME280;37130;55.670;37.596;2023-01-27T13:09:00;99936.66;;;-1.44;82.08
51081;BME280;37130;55.670;37.596;2023-01-27T13:11:35;99940.09;;;-1.47;82.06
51081;BME280;37130;55.670;37.596;2023-01-27T13:14:15;99942.72;;;-1.48;82.31
51081;BME280;37130;55.670;37.596;2023-01-27T13:16:53;99934.91;;;-1.48;81.94
51081;BME280;37130;55.670;37.596;2023-01-27T13:19:50;99938.38;;;-1.48;82.08
51081;BME280;37130;55.670;37.596;2023-01-27T13:22:20;99952.25;;;-1.49;82.46
51081;BME280;37130;55.670;37.596;2023-01-27T13:24:55;99940.94;;;-1.54;82.29
51081;BME280;37130;55.670;37.596;2023-01-27T13:27:25;99861.84;;;-2.04;82.47
51081;BME280;37130;55.670;37.596;2023-01-27T13:30:09;99935.81;;;-1.46;82.86
51081;BME280;37130;55.670;37.596;2023-01-27T13:32:42;99950.59;;;-1.33;82.45
51081;BME280;37130;55.670;37.596;2023-01-27T13:35:35;99953.25;;;-1.21;82.68
51081;BME280;37130;55.670;37.596;2023-01-27T13:38:18;99914.22;;;-1.32;82.54
51081;BME280;37130;55.670;37.596;2023-01-27T13:40:48;99944.59;;;-1.21;82.98
51081;BME280;37130;55.670;37.596;2023-01-27T13:43:29;99957.56;;;-1.26;82.56
51081;BME280;37130;55.670;37.596;2023-01-27T13:48:36;99953.31;;;-1.18;82.74
51081;BME280;37130;55.670;37.596;2023-01-27T13:51:10;99949.78;;;-1.21;82.68
51081;BME280;37130;55.670;37.596;2023-01-27T13:53:39;99795.94;;;-2.27;82.45
51081;BME280;37130;55.670;37.596;2023-01-27T14:02:06;99959.13;;;-1.52;83.15
51081;BME280;37130;55.670;37.596;2023-01-27T14:10:16;99847.91;;;-2.19;83.30
51081;BME280;37130;55.670;37.596;2023-01-27T14:13:12;99961.72;;;-1.52;83.25
51081;BME280;37130;55.670;37.596;2023-01-27T14:15:58;99862.69;;;-2.09;83.03
51081;BME280;37130;55.670;37.596;2023-01-27T14:19:17;99966.94;;;-1.48;83.18
51081;BME280;37130;55.670;37.596;2023-01-27T14:24:28;99972.16;;;-1.46;83.57
51081;BME280;37130;55.670;37.596;2023-01-27T14:27:38;99968.56;;;-1.64;83.23
51081;BME280;37130;55.670;37.596;2023-01-27T14:30:23;99909.50;;;-1.92;82.95
51081;BME280;37130;55.670;37.596;2023-01-27T14:33:16;99979.84;;;-1.62;83.08
51081;BME280;37130;55.670;37.596;2023-01-27T14:36:09;99996.44;;;-1.41;83.66
51081;BME280;37130;55.670;37.596;2023-01-27T14:41:37;100000.84;;;-1.33;83.46
51081;BME280;37130;55.670;37.596;2023-01-27T14:46:58;100003.41;;;-1.34;83.13
51081;BME280;37130;55.670;37.596;2023-01-27T14:49:57;100006.00;;;-1.39;83.75
51081;BME280;37130;55.670;37.596;2023-01-27T14:52:29;100011.16;;;-1.40;83.52
51081;BME280;37130;55.670;37.596;2023-01-27T14:55:17;100014.66;;;-1.38;83.31
51081;BME280;37130;55.670;37.596;2023-01-27T14:57:51;99940.69;;;-1.88;83.53
51081;BME280;37130;55.670;37.596;2023-01-27T15:06:00;100024.13;;;-1.43;83.99